Time;durP1;ratioP1;P1;durP2;ratioP2;P2;SDS_P1;SDS_P2;PMS_P1;PMS_P2;Temp;Humidity;BMP_temperature;BMP_pressure;BME280_temperature;BME280_humidity;BME280_pressure;Samples;Min_cycle;Max_cycle;Signal;HPM_P1;HPM_P2
2024/01/06 00:01:14;;;;;;;22.15;15.70;;;;;;;5.55;66.81;97929.81;5087548;28;20041;-70
2024/01/06 00:03:41;;;;;;;22.23;16.88;;;;;;;5.51;66.90;97915.16;5087478;28;20071;-71
2024/01/06 00:06:08;;;;;;;20.90;16.17;;;;;;;5.53;66.79;97915.91;5087099;28;20044;-71
2024/01/06 00:08:35;;;;;;;20.90;15.90;;;;;;;5.55;66.93;97911.41;5087447;28;20342;-71
2024/01/06 00:11:03;;;;;;;22.23;16.45;;;;;;;5.38;67.63;97899.25;5086989;28;20354;-72
2024/01/06 00:13:30;;;;;;;19.15;15.30;;;;;;;5.53;67.02;97910.66;5087235;28;20099;-71
2024/01/06 00:15:57;;;;;;;23.15;16.77;;;;;;;5.54;67.09;97920.25;5086997;28;20040;-72
2024/01/06 00:18:23;;;;;;;18.63;14.80;;;;;;;5.53;67.06;97924.66;5086871;28;20240;-72
2024/01/06 00:20:50;;;;;;;21.48;15.30;;;;;;;5.55;67.17;97920.16;5086742;28;20044;-72
2024/01/06 00:23:17;;;;;;;17.02;13.70;;;;;;;5.52;67.95;97924.72;5087046;28;20052;-72
2024/01/06 00:25:43;;;;;;;17.63;14.90;;;;;;;5.56;67.55;97927.09;5086956;28;20060;-71
2024/01/06 00:28:11;;;;;;;17.45;14.20;;;;;;;5.58;67.63;97930.47;5086025;28;20040;-72
2024/01/06 00:30:38;;;;;;;18.88;15.30;;;;;;;5.54;68.33;97925.50;5086940;28;20040;-71
2024/01/06 00:33:05;;;;;;;20.02;15.02;;;;;;;5.54;67.71;97933.38;5087068;28;20052;-71
2024/01/06 00:35:32;;;;;;;18.15;15.10;;;;;;;5.53;68.41;97936.94;5085604;28;20305;-71
2024/01/06 00:38:00;;;;;;;21.67;15.27;;;;;;;5.56;68.33;97942.88;5086686;28;20094;-71
2024/01/06 00:40:27;;;;;;;17.10;14.48;;;;;;;5.57;68.36;97939.31;5086951;28;20040;-72
2024/01/06 00:42:53;;;;;;;19.55;14.57;;;;;;;5.57;68.25;97935.81;5086362;28;20040;-72
2024/01/06 00:45:22;;;;;;;21.55;15.70;;;;;;;5.54;68.46;97946.50;5086463;28;20044;-72
2024/01/06 00:47:48;;;;;;;19.48;15.20;;;;;;;5.40;68.38;97914.00;5086809;28;20086;-71
2024/01/06 00:50:16;;;;;;;18.98;14.27;;;;;;;5.58;68.43;97940.16;5096258;28;20060;-71
2024/01/06 00:52:43;;;;;;;23.60;15.77;;;;;;;5.59;69.40;97936.59;5106948;28;20040;-72
2024/01/06 00:55:10;;;;;;;21.05;16.50;;;;;;;5.22;70.57;97873.00;5106988;28;20040;-72
2024/01/06 00:57:36;;;;;;;19.95;16.05;;;;;;;5.55;70.21;97921.94;5106446;28;20065;-71
2024/01/06 01:00:04;;;;;;;20.33;14.90;;;;;;;5.57;70.21;97931.41;5106851;28;20218;-71
2024/01/06 01:02:32;;;;;;;19.00;14.30;;;;;;;5.57;70.13;97922.69;5106626;28;20044;-71
2024/01/06 01:04:59;;;;;;;18.48;13.90;;;;;;;5.60;69.32;97925.13;5106303;28;20056;-71
2024/01/06 01:07:26;;;;;;;17.02;13.40;;;;;;;5.62;69.80;97923.28;5106869;28;20358;-71
2024/01/06 01:09:53;;;;;;;18.52;14.32;;;;;;;5.66;69.85;97930.88;5106434;28;20048;-72
2024/01/06 01:12:20;;;;;;;18.77;15.05;;;;;;;5.65;70.87;97938.88;5106530;28;20044;-71
2024/01/06 01:14:46;;;;;;;16.67;13.68;;;;;;;5.63;70.63;97941.59;5106503;28;20044;-71
2024/01/06 01:17:13;;;;;;;16.80;13.23;;;;;;;5.63;70.12;97936.31;5106812;28;20355;-71
2024/01/06 01:19:41;;;;;;;20.13;15.00;;;;;;;5.62;71.16;97944.28;5106516;28;20040;-72
2024/01/06 01:22:08;;;;;;;20.60;15.02;;;;;;;5.65;71.22;97950.22;5106545;28;20048;-71
2024/01/06 01:24:35;;;;;;;18.90;14.43;;;;;;;5.67;70.95;97947.50;5107024;28;20090;-71
2024/01/06 01:27:01;;;;;;;18.35;14.63;;;;;;;5.66;71.47;97943.19;5106184;28;20044;-72
2024/01/06 01:29:28;;;;;;;17.17;13.70;;;;;;;5.64;71.73;97947.69;5088127;28;20040;-71
2024/01/06 01:31:55;;;;;;;17.35;13.63;;;;;;;5.43;72.74;97923.47;5106075;28;20090;-71
2024/01/06 01:34:21;;;;;;;16.83;13.07;;;;;;;5.63;71.77;97943.38;5106081;28;20085;-71
2024/01/06 01:36:49;;;;;;;19.15;13.55;;;;;;;5.65;72.04;97944.13;5105710;28;20354;-71
2024/01/06 01:39:16;;;;;;;18.20;14.07;;;;;;;5.62;72.32;97933.78;5105998;28;20109;-71
2024/01/06 01:41:43;;;;;;;19.02;14.05;;;;;;;5.64;72.15;97931.91;5105640;28;20047;-71
2024/01/06 01:44:09;;;;;;;16.23;12.90;;;;;;;5.66;72.26;97935.31;5106224;28;20040;-71
2024/01/06 01:46:37;;;;;;;16.77;13.55;;;;;;;5.47;72.40;97914.50;5106208;28;20227;-70
2024/01/06 01:49:05;;;;;;;19.40;14.57;;;;;;;5.44;72.27;97899.75;5105905;28;20244;-71
2024/01/06 01:51:35;;;;;;;17.88;13.77;;;;;;;5.67;72.24;97929.94;5065340;28;20067;-71
2024/01/06 01:54:06;;;;;;;16.67;12.57;;;;;;;5.66;72.49;97928.25;5065303;28;20057;-71
2024/01/06 01:56:33;;;;;;;18.50;12.93;;;;;;;5.67;72.85;97918.59;5065525;28;20248;-71
2024/01/06 01:59:02;;;;;;;16.48;12.75;;;;;;;5.68;72.68;97917.66;5065430;28;20041;-72
2024/01/06 02:01:29;;;;;;;17.63;13.68;;;;;;;5.50;72.96;97880.16;5065430;28;20053;-72
2024/01/06 02:03:56;;;;;;;17.65;13.77;;;;;;;5.65;73.48;97902.06;5065716;28;20068;-71
2024/01/06 02:06:22;;;;;;;19.25;14.20;;;;;;;5.65;73.36;97905.53;5065172;28;20041;-71
2024/01/06 02:08:49;;;;;;;18.10;14.50;;;;;;;5.69;73.43;97903.56;5065321;28;20045;-71
2024/01/06 02:11:17;;;;;;;19.63;15.27;;;;;;;5.65;74.13;97897.66;5065131;28;20289;-71
2024/01/06 02:13:44;;;;;;;18.90;14.60;;;;;;;4.88;73.78;97762.94;5065071;28;20044;-71
2024/01/06 02:16:10;;;;;;;19.08;14.13;;;;;;;5.66;73.64;97893.25;5064461;28;20094;-72
2024/01/06 02:18:37;;;;;;;17.92;15.75;;;;;;;5.67;73.70;97885.28;5064156;28;20036;-71
2024/01/06 02:21:04;;;;;;;20.58;15.52;;;;;;;5.69;73.04;97875.50;5065024;28;20044;-71
2024/01/06 02:23:35;;;;;;;19.70;15.65;;;;;;;5.70;72.63;97874.56;5065269;28;20052;-72
2024/01/06 02:26:02;;;;;;;21.63;15.90;;;;;;;5.72;73.08;97870.06;5065217;28;20045;-72
2024/01/06 02:28:28;;;;;;;22.08;15.35;;;;;;;5.71;73.15;97875.41;5065113;28;20044;-71
2024/01/06 02:30:55;;;;;;;19.48;15.68;;;;;;;5.34;73.45;97811.88;5065491;28;20052;-72
2024/01/06 02:33:24;;;;;;;19.13;15.50;;;;;;;5.65;74.49;97879.25;5064832;28;20087;-71
2024/01/06 02:35:50;;;;;;;21.40;15.25;;;;;;;5.64;73.78;97869.69;5065422;28;20044;-71
2024/01/06 02:38:17;;;;;;;18.70;14.55;;;;;;;5.65;73.64;97868.75;5065097;28;20045;-71
2024/01/06 02:40:45;;;;;;;20.92;16.08;;;;;;;5.65;74.37;97875.78;5065090;28;20201;-71
2024/01/06 02:43:11;;;;;;;21.25;16.10;;;;;;;5.64;73.99;97874.09;5064790;28;20041;-71
2024/01/06 02:45:38;;;;;;;20.40;16.30;;;;;;;5.61;74.00;97874.28;5065355;28;20049;-71
2024/01/06 02:48:05;;;;;;;21.00;16.55;;;;;;;5.64;74.32;97874.09;5065016;28;20044;-71
2024/01/06 02:50:32;;;;;;;20.02;17.10;;;;;;;5.63;74.43;97881.13;5088784;28;20060;-71
2024/01/06 02:52:58;;;;;;;19.67;15.50;;;;;;;5.63;74.73;97873.25;5107926;28;20101;-71
2024/01/06 02:55:25;;;;;;;21.05;17.00;;;;;;;5.62;75.17;97871.56;5108967;28;20044;-72
2024/01/06 02:57:53;;;;;;;19.75;15.00;;;;;;;5.62;73.79;97882.06;5091639;28;20234;-72
2024/01/06 03:00:20;;;;;;;23.15;17.75;;;;;;;5.60;75.41;97878.69;5109129;28;20085;-72
2024/01/06 03:02:47;;;;;;;20.65;16.30;;;;;;;5.61;74.82;97871.63;5108803;28;20044;-71
2024/01/06 03:05:13;;;;;;;22.10;16.83;;;;;;;5.47;74.64;97840.91;5109044;28;20097;-71
2024/01/06 03:07:40;;;;;;;19.17;16.08;;;;;;;5.47;74.64;97845.31;5109053;28;20200;-71
2024/01/06 03:10:07;;;;;;;20.38;15.40;;;;;;;5.64;75.10;97876.72;5108488;28;20062;-72
2024/01/06 03:12:34;;;;;;;17.30;14.77;;;;;;;5.67;74.44;97881.78;5108597;28;20047;-72
2024/01/06 03:15:02;;;;;;;20.83;16.08;;;;;;;5.66;74.70;97877.47;5108603;28;20052;-72
2024/01/06 03:17:29;;;;;;;20.83;15.77;;;;;;;5.61;75.63;97874.28;5108556;28;20057;-72
2024/01/06 03:19:55;;;;;;;21.52;14.90;;;;;;;5.60;75.17;97856.81;5108512;28;20063;-72
2024/01/06 03:22:22;;;;;;;21.35;15.82;;;;;;;5.63;75.17;97861.88;5108125;28;20102;-71
2024/01/06 03:24:49;;;;;;;21.83;15.93;;;;;;;5.64;75.13;97864.41;5108617;28;20097;-71
2024/01/06 03:27:15;;;;;;;20.10;15.25;;;;;;;5.66;75.10;97872.22;5108334;28;20044;-71
2024/01/06 03:29:42;;;;;;;19.92;17.15;;;;;;;5.65;74.92;97870.53;5108365;28;20044;-71
2024/01/06 03:32:10;;;;;;;19.00;15.38;;;;;;;5.63;75.30;97875.03;5108100;28;20181;-71
2024/01/06 03:34:36;;;;;;;20.42;16.20;;;;;;;5.61;75.23;97871.63;5108374;28;20129;-72
2024/01/06 03:37:03;;;;;;;20.90;17.40;;;;;;;5.62;75.59;97878.59;5107761;28;20227;-72
2024/01/06 03:39:30;;;;;;;19.88;14.95;;;;;;;5.61;75.54;97880.38;5107971;28;20036;-71
2024/01/06 03:41:56;;;;;;;19.38;15.63;;;;;;;5.61;75.91;97876.91;5107701;28;20196;-71
2024/01/06 03:44:23;;;;;;;23.58;15.48;;;;;;;5.46;75.53;97847.09;5108787;28;20051;-71
2024/01/06 03:46:50;;;;;;;16.85;15.05;;;;;;;5.66;75.65;97869.59;5108174;28;20090;-71
2024/01/06 03:49:20;;;;;;;19.73;15.93;;;;;;;5.64;75.50;97866.22;5107766;28;20036;-72
2024/01/06 03:51:47;;;;;;;23.17;16.17;;;;;;;5.61;76.31;97854.09;5107859;28;20058;-71
2024/01/06 03:54:14;;;;;;;18.45;16.30;;;;;;;5.62;76.56;97860.19;5089842;28;20081;-72
2024/01/06 03:56:40;;;;;;;23.60;17.58;;;;;;;5.62;76.42;97868.06;5107723;28;20094;-72
2024/01/06 03:59:07;;;;;;;20.15;16.30;;;;;;;5.49;76.23;97851.34;5107403;28;20048;-71
2024/01/06 04:01:35;;;;;;;21.55;17.30;;;;;;;5.67;76.91;97879.16;5107418;28;20086;-71
2024/01/06 04:04:03;;;;;;;21.15;16.08;;;;;;;5.65;76.33;97881.03;5106780;28;20043;-72
2024/01/06 04:06:31;;;;;;;21.23;17.20;;;;;;;5.65;76.39;97888.91;5107831;28;20109;-71
2024/01/06 04:08:58;;;;;;;22.40;17.05;;;;;;;5.62;77.25;97891.72;5107414;28;20040;-72
2024/01/06 04:11:25;;;;;;;21.25;15.98;;;;;;;5.59;76.97;97884.88;5107695;28;20101;-72
2024/01/06 04:13:51;;;;;;;17.77;15.30;;;;;;;5.61;77.37;97888.25;5107659;28;20378;-71
2024/01/06 04:16:18;;;;;;;17.85;14.48;;;;;;;5.59;77.05;97895.38;5107252;28;20093;-71
2024/01/06 04:18:44;;;;;;;20.02;16.08;;;;;;;5.65;76.42;97897.66;5107025;28;20044;-71
2024/01/06 04:21:11;;;;;;;20.55;15.18;;;;;;;5.53;75.13;97874.72;5106947;28;20323;-71
2024/01/06 04:23:39;;;;;;;18.55;14.88;;;;;;;5.69;76.36;97909.69;5107226;28;20050;-72
2024/01/06 04:26:06;;;;;;;19.55;15.98;;;;;;;5.64;77.18;97906.47;5107161;28;20054;-72
2024/01/06 04:28:33;;;;;;;18.60;14.88;;;;;;;5.64;77.02;97909.09;5106991;28;20052;-72
2024/01/06 04:31:00;;;;;;;18.30;14.57;;;;;;;5.63;77.02;97907.41;5088976;28;20032;-72
2024/01/06 04:33:26;;;;;;;19.13;16.40;;;;;;;5.67;76.70;97905.44;5107057;28;20044;-71
2024/01/06 04:35:53;;;;;;;17.20;14.88;;;;;;;5.69;76.07;97908.84;5106998;28;20052;-72
2024/01/06 04:38:19;;;;;;;19.30;15.43;;;;;;;5.70;76.31;97906.13;5106648;28;20204;-72
2024/01/06 04:40:48;;;;;;;18.52;15.70;;;;;;;5.49;75.91;97885.50;5089684;28;20043;-72
2024/01/06 04:43:14;;;;;;;17.25;14.93;;;;;;;5.67;75.67;97911.56;5106623;28;20055;-71
2024/01/06 04:45:41;;;;;;;21.63;16.73;;;;;;;5.62;75.77;97924.13;5106883;28;20176;-72
2024/01/06 04:48:08;;;;;;;21.50;16.95;;;;;;;5.61;75.47;97921.56;5106764;28;20044;-72
2024/01/06 04:50:34;;;;;;;23.98;16.65;;;;;;;5.58;75.38;97922.59;5106544;28;20296;-72
2024/01/06 04:53:01;;;;;;;22.17;16.65;;;;;;;5.57;74.89;97926.16;5107248;28;20226;-71
2024/01/06 04:55:28;;;;;;;20.75;16.98;;;;;;;5.55;75.30;97930.66;5106630;28;20307;-71
2024/01/06 04:57:56;;;;;;;23.20;17.33;;;;;;;5.53;75.09;97921.16;5106626;28;20048;-71
2024/01/06 05:00:23;;;;;;;18.30;16.33;;;;;;;5.52;75.06;97925.59;5106572;28;20047;-71
2024/01/06 05:02:49;;;;;;;18.55;15.52;;;;;;;5.48;75.12;97926.69;5106484;28;20063;-71
2024/01/06 05:05:16;;;;;;;18.75;15.18;;;;;;;5.43;74.86;97921.69;5106793;28;20246;-71
2024/01/06 05:07:43;;;;;;;22.38;16.08;;;;;;;5.40;74.96;97921.88;5106409;28;20089;-72
2024/01/06 05:10:10;;;;;;;19.92;15.05;;;;;;;5.40;75.18;97921.88;5106644;28;20040;-71
2024/01/06 05:12:36;;;;;;;17.73;14.80;;;;;;;5.40;75.17;97926.28;5106382;28;20063;-71
2024/01/06 05:15:05;;;;;;;17.23;15.32;;;;;;;5.38;75.32;97912.38;5105715;28;20173;-72
2024/01/06 05:17:32;;;;;;;16.50;14.63;;;;;;;5.37;75.68;97915.94;5106201;28;20044;-72
2024/01/06 05:20:00;;;;;;;17.73;14.80;;;;;;;5.33;75.40;97917.91;5106205;28;20189;-71
2024/01/06 05:22:26;;;;;;;18.15;14.80;;;;;;;5.37;75.01;97935.19;5106464;28;20282;-68
2024/01/06 05:24:53;;;;;;;16.80;15.07;;;;;;;5.34;75.50;97930.09;5106171;28;20044;-68
2024/01/06 05:27:20;;;;;;;19.27;15.90;;;;;;;5.36;75.80;97924.75;5106128;28;20062;-71
2024/01/06 05:29:48;;;;;;;18.88;15.48;;;;;;;5.29;76.41;97919.00;5106584;28;20105;-72
2024/01/06 05:32:17;;;;;;;19.92;14.70;;;;;;;5.23;76.86;97908.84;5105850;28;20111;-71
2024/01/06 05:34:44;;;;;;;16.92;15.20;;;;;;;5.24;77.10;97912.31;5088031;28;20036;-72
2024/01/06 05:37:10;;;;;;;17.08;15.27;;;;;;;5.28;76.58;97925.19;5106264;28;20288;-72
2024/01/06 05:39:38;;;;;;;19.73;15.48;;;;;;;5.26;76.73;97921.81;5105649;28;20039;-72
2024/01/06 05:42:05;;;;;;;18.17;14.63;;;;;;;5.31;76.40;97932.06;5088187;28;20043;-72
2024/01/06 05:44:32;;;;;;;17.80;14.75;;;;;;;4.53;76.31;97818.25;5105857;28;20055;-71
2024/01/06 05:46:58;;;;;;;17.52;14.38;;;;;;;5.33;75.77;97943.31;5088714;28;20036;-72
2024/01/06 05:49:26;;;;;;;16.73;13.95;;;;;;;5.18;76.07;97899.53;5105278;28;20044;-72
2024/01/06 05:51:53;;;;;;;16.77;14.73;;;;;;;5.31;76.36;97914.50;5105803;28;20043;-70
2024/01/06 05:54:19;;;;;;;16.75;14.95;;;;;;;5.31;76.54;97919.78;5106073;28;20050;-70
2024/01/06 05:56:46;;;;;;;16.88;13.75;;;;;;;5.29;76.46;97911.13;5105799;28;20052;-69
2024/01/06 05:59:12;;;;;;;18.33;15.25;;;;;;;5.28;75.76;97925.19;5105779;28;20234;-70
2024/01/06 06:01:39;;;;;;;17.38;15.48;;;;;;;5.32;75.98;97920.63;5105737;28;20039;-69
2024/01/06 06:04:06;;;;;;;17.15;14.77;;;;;;;5.33;75.69;97938.06;5105730;28;20127;-69
2024/01/06 06:06:34;;;;;;;17.25;13.38;;;;;;;5.32;75.92;97937.22;5105716;28;20189;-69
2024/01/06 06:09:00;;;;;;;16.77;14.30;;;;;;;5.31;75.74;97942.56;5105782;28;20039;-69
2024/01/06 06:11:27;;;;;;;16.75;14.45;;;;;;;5.28;75.85;97948.84;5105586;28;20090;-70
2024/01/06 06:13:54;;;;;;;20.70;14.10;;;;;;;5.27;75.85;97949.78;5105971;28;20292;-70
2024/01/06 06:16:20;;;;;;;17.27;14.77;;;;;;;5.24;76.15;97946.47;5105310;28;20044;-69
2024/01/06 06:18:47;;;;;;;16.05;14.35;;;;;;;5.22;75.94;97943.09;5088386;28;20044;-70
2024/01/06 06:21:13;;;;;;;18.98;15.40;;;;;;;5.23;76.07;97950.88;5105319;28;20374;-70
2024/01/06 06:23:41;;;;;;;16.35;14.00;;;;;;;5.21;76.40;97949.25;5105494;28;20044;-70
2024/01/06 06:26:08;;;;;;;15.95;13.68;;;;;;;5.25;75.66;97940.28;5105422;28;20063;-71
2024/01/06 06:28:35;;;;;;;18.13;14.10;;;;;;;5.21;76.16;97947.50;5109194;28;20204;-74
2024/01/06 06:31:02;;;;;;;17.85;15.38;;;;;;;5.25;76.02;97941.13;5109097;28;20249;-70
2024/01/06 06:33:29;;;;;;;15.13;13.38;;;;;;;5.23;76.01;97950.88;5092152;28;20058;-69
2024/01/06 06:35:55;;;;;;;16.38;13.60;;;;;;;4.90;75.54;97893.19;5109683;28;20066;-70
2024/01/06 06:38:22;;;;;;;16.40;14.52;;;;;;;5.06;76.52;97924.69;5108982;28;20040;-70
2024/01/06 06:40:50;;;;;;;15.77;13.20;;;;;;;5.22;76.72;97957.06;5108945;28;20048;-70
2024/01/06 06:43:17;;;;;;;18.65;14.02;;;;;;;5.23;76.65;97963.16;5109276;28;20105;-70
2024/01/06 06:45:43;;;;;;;16.90;14.10;;;;;;;5.24;76.31;97963.06;5108946;28;20082;-70
2024/01/06 06:48:11;;;;;;;16.15;13.05;;;;;;;5.24;76.85;97957.81;5109026;28;20073;-70
2024/01/06 06:50:38;;;;;;;17.58;14.00;;;;;;;5.20;77.32;97960.69;5108680;28;20051;-70
2024/01/06 06:53:04;;;;;;;15.10;12.20;;;;;;;5.17;77.01;97960.88;5109340;28;20052;-70
2024/01/06 06:55:31;;;;;;;15.32;13.68;;;;;;;5.23;77.31;97958.75;5108719;28;20304;-69
2024/01/06 06:57:59;;;;;;;14.85;13.25;;;;;;;5.24;76.85;97970.94;5108948;28;20089;-70
2024/01/06 07:00:26;;;;;;;15.10;13.43;;;;;;;5.21;76.35;97976.38;5108540;28;20055;-70
2024/01/06 07:02:52;;;;;;;16.45;14.30;;;;;;;5.22;76.27;97970.19;5108828;28;20152;-70
2024/01/06 07:05:19;;;;;;;15.80;14.05;;;;;;;5.22;76.36;97977.22;5108479;28;20044;-70
2024/01/06 07:07:46;;;;;;;15.30;13.13;;;;;;;5.19;76.04;97977.41;5108344;28;20201;-70
2024/01/06 07:10:13;;;;;;;16.67;14.77;;;;;;;5.20;76.38;97979.94;5108595;28;20099;-70
2024/01/06 07:12:40;;;;;;;16.98;14.05;;;;;;;5.18;76.38;97988.84;5108340;28;20067;-70
2024/01/06 07:15:09;;;;;;;16.67;13.95;;;;;;;5.15;76.36;97981.97;5108582;28;20097;-70
2024/01/06 07:17:36;;;;;;;16.25;14.07;;;;;;;5.16;76.31;97983.66;5108830;28;20097;-70
2024/01/06 07:20:04;;;;;;;17.45;14.77;;;;;;;5.15;76.33;97984.59;5109031;28;20059;-70
2024/01/06 07:22:31;;;;;;;17.90;15.00;;;;;;;5.11;76.48;97983.06;5108104;28;20052;-70
2024/01/06 07:24:57;;;;;;;18.63;15.32;;;;;;;5.09;76.63;97993.66;5108402;28;20102;-71
2024/01/06 07:27:24;;;;;;;15.45;13.88;;;;;;;5.07;76.40;97994.66;5108387;28;20107;-72
2024/01/06 07:29:51;;;;;;;15.57;13.55;;;;;;;5.09;76.52;97992.81;5107931;28;20296;-70
2024/01/06 07:32:19;;;;;;;17.40;14.38;;;;;;;5.10;75.94;97999.75;5108253;28;20055;-69
2024/01/06 07:34:45;;;;;;;16.17;13.70;;;;;;;4.92;76.60;97975.34;5107901;28;20048;-70
2024/01/06 07:37:12;;;;;;;17.65;13.30;;;;;;;5.09;76.21;98003.31;5107931;28;20254;-70
2024/01/06 07:39:38;;;;;;;16.90;13.63;;;;;;;5.07;76.60;98006.03;5107790;28;20040;-69
2024/01/06 07:42:05;;;;;;;16.92;14.55;;;;;;;5.07;76.70;98008.66;5107825;28;20051;-70
2024/01/06 07:44:33;;;;;;;16.92;13.50;;;;;;;5.08;76.32;98010.34;5108007;28;20052;-70
2024/01/06 07:47:01;;;;;;;19.00;13.40;;;;;;;4.90;75.95;97986.88;5108224;28;20086;-70
2024/01/06 07:49:30;;;;;;;15.63;13.27;;;;;;;5.05;76.51;98010.50;5107414;28;20060;-70
2024/01/06 07:51:56;;;;;;;18.00;14.35;;;;;;;5.05;76.80;98009.66;5107744;28;20048;-70
2024/01/06 07:54:23;;;;;;;15.30;13.30;;;;;;;5.00;76.69;98009.06;5107773;28;20189;-70
2024/01/06 07:56:49;;;;;;;16.33;13.10;;;;;;;5.00;76.74;98009.06;5107824;28;20097;-70
2024/01/06 07:59:16;;;;;;;17.73;15.52;;;;;;;4.99;76.61;98016.09;5107739;28;20040;-70
2024/01/06 08:01:43;;;;;;;14.68;13.10;;;;;;;4.96;76.82;98007.53;5107649;28;20040;-70
2024/01/06 08:04:10;;;;;;;17.70;13.75;;;;;;;4.93;77.13;98026.06;5107604;28;20051;-70
2024/01/06 08:06:38;;;;;;;16.42;14.45;;;;;;;4.90;77.49;98026.25;5107547;28;20052;-71
2024/01/06 08:09:05;;;;;;;15.73;14.13;;;;;;;4.86;77.52;98022.06;5090260;28;20188;-70
2024/01/06 08:11:32;;;;;;;14.27;12.75;;;;;;;4.88;77.15;98026.28;5106783;28;20043;-71
2024/01/06 08:13:59;;;;;;;12.75;11.07;;;;;;;4.87;77.19;98036.88;5107440;28;20165;-71
2024/01/06 08:16:25;;;;;;;15.23;13.45;;;;;;;4.84;77.26;98029.16;5107375;28;20043;-71
2024/01/06 08:18:52;;;;;;;15.13;12.45;;;;;;;4.86;77.01;98037.81;5107324;28;20044;-71
2024/01/06 08:21:19;;;;;;;12.85;10.98;;;;;;;4.84;77.03;98039.66;5107471;28;20101;-71
2024/01/06 08:23:47;;;;;;;14.52;12.32;;;;;;;4.82;77.30;98037.97;5107212;28;20044;-71
2024/01/06 08:26:13;;;;;;;13.35;11.95;;;;;;;4.78;77.33;98040.84;5106878;28;20282;-71
2024/01/06 08:28:40;;;;;;;11.40;10.20;;;;;;;4.73;77.41;98038.44;5106863;28;20044;-71
2024/01/06 08:31:07;;;;;;;12.25;10.95;;;;;;;4.74;77.35;98047.16;5089744;28;20066;-71
2024/01/06 08:33:33;;;;;;;13.43;11.45;;;;;;;4.72;77.47;98039.38;5106749;28;20040;-71
2024/01/06 08:36:00;;;;;;;12.30;11.00;;;;;;;4.73;77.27;98046.31;5107023;28;20239;-71
2024/01/06 08:38:27;;;;;;;11.73;9.82;;;;;;;4.76;77.26;98040.91;5107224;28;20051;-71
2024/01/06 08:40:55;;;;;;;11.32;10.13;;;;;;;4.78;77.55;98041.69;5106713;28;20039;-71
2024/01/06 08:43:21;;;;;;;13.02;10.07;;;;;;;4.78;78.08;98049.56;5106567;28;20073;-71
2024/01/06 08:45:50;;;;;;;12.05;10.85;;;;;;;4.79;78.20;98051.25;5089493;28;20040;-71
2024/01/06 08:48:18;;;;;;;11.55;9.75;;;;;;;4.78;78.48;98048.69;5106736;28;20102;-70
2024/01/06 08:50:45;;;;;;;12.18;9.93;;;;;;;4.79;78.21;98050.41;5084524;28;20209;-71
2024/01/06 08:53:12;;;;;;;11.50;10.20;;;;;;;4.80;77.62;98059.97;5086499;28;20284;-71
2024/01/06 08:55:38;;;;;;;10.40;9.18;;;;;;;4.79;78.13;98047.78;5085722;28;20051;-71
2024/01/06 08:58:06;;;;;;;10.45;8.95;;;;;;;4.77;78.78;98060.97;5085933;28;20371;-71
2024/01/06 09:00:33;;;;;;;9.27;8.38;;;;;;;4.81;78.59;98061.66;5086512;28;20098;-71
2024/01/06 09:03:00;;;;;;;10.40;8.95;;;;;;;4.81;78.86;98070.38;5086132;28;20298;-71
2024/01/06 09:05:27;;;;;;;8.98;8.07;;;;;;;4.81;78.29;98064.28;5086247;28;20079;-71
2024/01/06 09:07:53;;;;;;;9.35;8.15;;;;;;;4.80;79.16;98067.84;5086263;28;20044;-71
2024/01/06 09:10:20;;;;;;;10.38;9.20;;;;;;;4.84;78.91;98074.63;5084881;28;20041;-71
2024/01/06 09:12:47;;;;;;;10.57;9.32;;;;;;;4.89;77.98;98074.41;5085796;28;20309;-71
2024/01/06 09:15:15;;;;;;;9.82;7.53;;;;;;;4.89;78.43;98077.03;5086043;28;20188;-71
2024/01/06 09:17:42;;;;;;;8.68;7.63;;;;;;;4.87;78.82;98076.25;5086482;28;20102;-71
2024/01/06 09:20:09;;;;;;;8.38;7.25;;;;;;;4.86;78.90;98085.91;5085730;28;20305;-71
2024/01/06 09:22:36;;;;;;;8.80;7.07;;;;;;;4.81;79.27;98083.53;5085941;28;20086;-71
2024/01/06 09:25:03;;;;;;;7.78;6.50;;;;;;;4.85;78.58;98091.22;5085890;28;20041;-71
2024/01/06 09:27:29;;;;;;;7.30;6.50;;;;;;;4.64;78.21;98041.56;5085622;28;20055;-71
2024/01/06 09:29:56;;;;;;;7.45;6.68;;;;;;;4.83;78.99;98080.81;5085865;28;20098;-71
2024/01/06 09:32:24;;;;;;;7.72;6.82;;;;;;;4.82;79.48;98085.22;5085639;28;20040;-70
2024/01/06 09:34:51;;;;;;;7.32;6.38;;;;;;;4.81;79.02;98091.38;5085796;28;20327;-71
2024/01/06 09:37:17;;;;;;;7.07;6.10;;;;;;;4.82;78.88;98084.38;5085697;28;20085;-71
2024/01/06 09:39:44;;;;;;;6.70;6.00;;;;;;;4.77;79.03;98092.47;5085708;28;20044;-71
2024/01/06 09:42:11;;;;;;;10.43;7.03;;;;;;;4.82;78.18;98087.84;5085626;28;20097;-71
2024/01/06 09:44:38;;;;;;;6.93;5.72;;;;;;;4.84;79.00;98085.13;5085689;28;20040;-71
2024/01/06 09:47:06;;;;;;;6.63;5.88;;;;;;;4.84;79.16;98090.38;5085395;28;20289;-71
2024/01/06 09:49:39;;;;;;;7.53;5.97;;;;;;;4.66;79.55;98060.69;5088638;28;20440;-71
2024/01/06 09:52:15;;;;;;;6.50;5.28;;;;;;;4.86;79.39;98083.28;5105723;28;20040;-71
2024/01/06 09:54:47;;;;;;;7.72;6.90;;;;;;;4.87;79.72;98084.97;5105723;28;20102;-71
2024/01/06 09:57:14;;;;;;;6.30;5.63;;;;;;;4.85;78.86;98078.97;5105780;28;20044;-71
2024/01/06 09:59:42;;;;;;;5.85;5.05;;;;;;;4.85;79.27;98086.84;5105771;28;20191;-71
2024/01/06 10:02:09;;;;;;;6.28;5.00;;;;;;;4.85;79.43;98078.09;5107354;28;20115;-71
2024/01/06 10:04:37;;;;;;;5.68;4.47;;;;;;;4.82;79.26;98079.97;5109668;28;20093;-71
2024/01/06 10:07:05;;;;;;;6.15;5.35;;;;;;;4.81;79.64;98078.28;5109613;28;20304;-71
2024/01/06 10:09:31;;;;;;;5.53;4.63;;;;;;;4.81;79.57;98080.03;5109808;28;20227;-71
2024/01/06 10:11:59;;;;;;;6.25;4.60;;;;;;;4.81;79.80;98080.91;5109644;28;20105;-71
2024/01/06 10:14:25;;;;;;;6.28;5.43;;;;;;;4.87;79.48;98087.59;5109722;28;20040;-71
2024/01/06 10:16:53;;;;;;;5.68;5.10;;;;;;;4.84;79.53;98079.88;5109414;28;20052;-71
2024/01/06 10:19:20;;;;;;;6.43;4.85;;;;;;;4.61;79.46;98070.56;5109282;28;20044;-71
2024/01/06 10:21:49;;;;;;;5.82;5.00;;;;;;;4.86;79.66;98083.28;5109342;28;20043;-71
2024/01/06 10:24:18;;;;;;;6.57;5.07;;;;;;;4.89;79.65;98088.41;5109324;28;20256;-71
2024/01/06 10:26:45;;;;;;;6.13;5.47;;;;;;;4.86;79.76;98091.16;5109368;28;20044;-71
2024/01/06 10:29:14;;;;;;;6.25;5.07;;;;;;;4.90;79.85;98091.88;5109718;28;20043;-71
2024/01/06 10:31:40;;;;;;;5.75;4.70;;;;;;;4.89;79.40;98096.28;5109333;28;20078;-71
2024/01/06 10:34:07;;;;;;;6.40;4.75;;;;;;;4.90;79.37;98091.88;5092401;28;20058;-71
2024/01/06 10:36:34;;;;;;;5.95;5.13;;;;;;;4.90;78.90;98102.38;5109170;28;20040;-71
2024/01/06 10:39:04;;;;;;;6.60;5.25;;;;;;;4.92;78.81;98097.91;5108975;28;20365;-71
2024/01/06 10:41:31;;;;;;;6.10;5.20;;;;;;;4.87;79.09;98102.50;5108965;28;20044;-71
2024/01/06 10:44:01;;;;;;;7.75;6.13;;;;;;;4.82;78.91;98087.84;5108950;28;20044;-71
2024/01/06 10:46:28;;;;;;;6.55;5.85;;;;;;;4.81;78.81;98099.28;5108836;28;20082;-71
2024/01/06 10:48:58;;;;;;;6.80;5.90;;;;;;;4.85;78.79;98085.97;5109084;28;20238;-71
2024/01/06 10:51:29;;;;;;;6.32;5.53;;;;;;;4.86;78.87;98092.94;5108577;28;20052;-71
2024/01/06 10:53:58;;;;;;;7.40;6.10;;;;;;;4.83;78.94;98096.56;5108988;28;20115;-71
2024/01/06 10:56:26;;;;;;;8.23;7.28;;;;;;;4.84;78.96;98094.78;5108922;28;20036;-71
2024/01/06 10:58:55;;;;;;;10.00;7.47;;;;;;;4.82;79.38;98094.88;5109082;28;20385;-71
2024/01/06 11:01:24;;;;;;;8.98;6.72;;;;;;;4.81;79.17;98094.00;5108723;28;20059;-71
2024/01/06 11:03:51;;;;;;;9.23;7.80;;;;;;;4.78;79.26;98091.56;5108814;28;20085;-71
2024/01/06 11:06:19;;;;;;;8.10;7.25;;;;;;;4.53;79.00;98050.91;5108481;28;20044;-71
2024/01/06 11:08:52;;;;;;;8.93;7.90;;;;;;;4.75;79.46;98073.34;5108657;28;20044;-71
2024/01/06 11:11:19;;;;;;;9.52;7.88;;;;;;;4.76;79.24;98077.66;5108554;28;20043;-71
2024/01/06 11:13:48;;;;;;;8.85;7.90;;;;;;;3.93;79.44;97951.66;5107788;28;20040;-71
2024/01/06 11:16:34;;;;;;;8.82;7.78;;;;;;;4.76;79.67;98063.69;5108816;28;20036;-71
2024/01/06 11:19:01;;;;;;;9.70;7.65;;;;;;;4.78;80.35;98061.81;5108444;28;20048;-71
2024/01/06 11:21:29;;;;;;;10.07;7.82;;;;;;;4.73;80.36;98062.06;5108751;28;20093;-71
2024/01/06 11:24:21;;;;;;;10.85;8.80;;;;;;;4.79;79.72;98066.16;5108067;28;20360;-71
2024/01/06 11:26:52;;;;;;;9.85;8.43;;;;;;;4.76;79.05;98059.28;5108624;28;20052;-71
2024/01/06 11:29:21;;;;;;;9.45;7.72;;;;;;;4.74;79.46;98058.53;5108049;28;20312;-71